sensor_id;sensor_type;location;lat;lon;timestamp;temperature;humidity
423;DHT22;198;48.752;9.180;2022-07-23T00:01:08;24.60;67.70
423;DHT22;198;48.752;9.180;2022-07-23T00:03:33;24.60;68.20
423;DHT22;198;48.752;9.180;2022-07-23T00:05:59;24.50;69.10
423;DHT22;198;48.752;9.180;2022-07-23T00:08:24;24.40;68.90
423;DHT22;198;48.752;9.180;2022-07-23T00:10:50;24.30;68.80
423;DHT22;198;48.752;9.180;2022-07-23T00:13:15;24.30;68.30
423;DHT22;198;48.752;9.180;2022-07-23T00:15:41;24.30;69.00
423;DHT22;198;48.752;9.180;2022-07-23T00:18:06;24.20;69.60
423;DHT22;198;48.752;9.180;2022-07-23T00:20:32;24.20;69.60
423;DHT22;198;48.752;9.180;2022-07-23T00:22:57;24.20;69.70
423;DHT22;198;48.752;9.180;2022-07-23T00:25:24;24.10;68.90
423;DHT22;198;48.752;9.180;2022-07-23T00:27:50;24.00;68.70
423;DHT22;198;48.752;9.180;2022-07-23T00:30:15;24.00;68.10
423;DHT22;198;48.752;9.180;2022-07-23T00:32:54;24.00;68.90
423;DHT22;198;48.752;9.180;2022-07-23T00:35:26;23.90;69.30
423;DHT22;198;48.752;9.180;2022-07-23T00:37:52;23.90;69.80
423;DHT22;198;48.752;9.180;2022-07-23T00:40:18;23.80;73.80
423;DHT22;198;48.752;9.180;2022-07-23T00:42:44;23.70;78.50
423;DHT22;198;48.752;9.180;2022-07-23T00:45:09;23.50;87.10
423;DHT22;198;48.752;9.180;2022-07-23T00:47:35;23.20;92.50
423;DHT22;198;48.752;9.180;2022-07-23T00:50:02;22.90;93.10
423;DHT22;198;48.752;9.180;2022-07-23T00:52:28;22.70;93.90
423;DHT22;198;48.752;9.180;2022-07-23T00:54:54;22.60;94.60
423;DHT22;198;48.752;9.180;2022-07-23T00:57:20;22.60;94.10
423;DHT22;198;48.752;9.180;2022-07-23T00:59:46;22.50;94.30
423;DHT22;198;48.752;9.180;2022-07-23T01:02:11;22.50;95.10
423;DHT22;198;48.752;9.180;2022-07-23T01:04:37;22.40;94.90
423;DHT22;198;48.752;9.180;2022-07-23T01:07:03;22.40;94.80
423;DHT22;198;48.752;9.180;2022-07-23T01:09:29;22.40;95.40
423;DHT22;198;48.752;9.180;2022-07-23T01:11:56;22.40;95.00
423;DHT22;198;48.752;9.180;2022-07-23T01:14:22;22.40;95.20
423;DHT22;198;48.752;9.180;2022-07-23T01:16:48;22.40;95.70
423;DHT22;198;48.752;9.180;2022-07-23T01:19:16;22.40;95.00
423;DHT22;198;48.752;9.180;2022-07-23T01:21:44;22.40;94.50
423;DHT22;198;48.752;9.180;2022-07-23T01:24:11;22.50;94.00
423;DHT22;198;48.752;9.180;2022-07-23T01:26:37;22.50;94.40
423;DHT22;198;48.752;9.180;2022-07-23T01:29:04;22.50;94.60
423;DHT22;198;48.752;9.180;2022-07-23T01:31:30;22.60;93.80
423;DHT22;198;48.752;9.180;2022-07-23T01:33:56;22.50;93.60
423;DHT22;198;48.752;9.180;2022-07-23T01:36:22;22.60;93.40
423;DHT22;198;48.752;9.180;2022-07-23T01:38:48;22.60;94.30
423;DHT22;198;48.752;9.180;2022-07-23T01:41:13;22.60;92.80
423;DHT22;198;48.752;9.180;2022-07-23T01:43:39;22.60;92.60
423;DHT22;198;48.752;9.180;2022-07-23T01:46:05;22.70;92.80
423;DHT22;198;48.752;9.180;2022-07-23T01:48:30;22.70;93.30
423;DHT22;198;48.752;9.180;2022-07-23T01:50:56;22.70;93.30
423;DHT22;198;48.752;9.180;2022-07-23T01:53:21;22.70;93.50
423;DHT22;198;48.752;9.180;2022-07-23T01:55:47;22.70;93.40
423;DHT22;198;48.752;9.180;2022-07-23T01:58:12;22.70;94.00
423;DHT22;198;48.752;9.180;2022-07-23T02:00:38;22.70;93.70
423;DHT22;198;48.752;9.180;2022-07-23T02:03:04;22.60;93.40
423;DHT22;198;48.752;9.180;2022-07-23T02:05:30;22.60;94.00
423;DHT22;198;48.752;9.180;2022-07-23T02:07:57;22.50;94.30
423;DHT22;198;48.752;9.180;2022-07-23T02:10:23;22.50;94.40
423;DHT22;198;48.752;9.180;2022-07-23T02:12:49;22.40;94.50
423;DHT22;198;48.752;9.180;2022-07-23T02:15:14;22.40;94.30
423;DHT22;198;48.752;9.180;2022-07-23T02:17:40;22.40;95.00
423;DHT22;198;48.752;9.180;2022-07-23T02:20:08;22.50;94.70
423;DHT22;198;48.752;9.180;2022-07-23T02:22:35;22.50;94.90
423;DHT22;198;48.752;9.180;2022-07-23T02:25:02;22.40;94.70
423;DHT22;198;48.752;9.180;2022-07-23T02:27:27;22.40;95.30
423;DHT22;198;48.752;9.180;2022-07-23T02:29:53;22.50;96.40
423;DHT22;198;48.752;9.180;2022-07-23T02:32:20;22.50;95.70
423;DHT22;198;48.752;9.180;2022-07-23T02:34:47;22.50;95.40
423;DHT22;198;48.752;9.180;2022-07-23T02:37:12;22.50;95.40
423;DHT22;198;48.752;9.180;2022-07-23T02:39:38;22.50;95.30
423;DHT22;198;48.752;9.180;2022-07-23T02:42:04;22.50;96.80
423;DHT22;198;48.752;9.180;2022-07-23T02:44:29;22.60;96.10
423;DHT22;198;48.752;9.180;2022-07-23T02:46:55;22.60;96.30
423;DHT22;198;48.752;9.180;2022-07-23T02:49:21;22.60;96.30
423;DHT22;198;48.752;9.180;2022-07-23T02:51:46;22.60;96.20
423;DHT22;198;48.752;9.180;2022-07-23T02:54:12;22.50;96.50
423;DHT22;198;48.752;9.180;2022-07-23T02:56:37;22.50;96.70
423;DHT22;198;48.752;9.180;2022-07-23T02:59:03;22.50;97.30
423;DHT22;198;48.752;9.180;2022-07-23T03:01:28;22.40;97.00
423;DHT22;198;48.752;9.180;2022-07-23T03:03:54;22.40;97.80
423;DHT22;198;48.752;9.180;2022-07-23T03:06:19;22.30;97.90
423;DHT22;198;48.752;9.180;2022-07-23T03:08:45;22.30;98.00
423;DHT22;198;48.752;9.180;2022-07-23T03:11:10;22.30;98.70
423;DHT22;198;48.752;9.180;2022-07-23T03:13:40;22.40;98.00
423;DHT22;198;48.752;9.180;2022-07-23T03:16:06;22.30;97.50
423;DHT22;198;48.752;9.180;2022-07-23T03:18:32;22.30;97.40
423;DHT22;198;48.752;9.180;2022-07-23T03:20:57;22.30;97.20
423;DHT22;198;48.752;9.180;2022-07-23T03:23:23;22.30;96.90
423;DHT22;198;48.752;9.180;2022-07-23T03:25:49;22.30;97.00
423;DHT22;198;48.752;9.180;2022-07-23T03:28:15;22.30;96.50
423;DHT22;198;48.752;9.180;2022-07-23T03:30:42;22.40;97.50
423;DHT22;198;48.752;9.180;2022-07-23T03:33:07;22.40;97.60
423;DHT22;198;48.752;9.180;2022-07-23T03:35:33;22.50;97.80
423;DHT22;198;48.752;9.180;2022-07-23T03:37:58;22.50;99.90
423;DHT22;198;48.752;9.180;2022-07-23T03:40:24;22.50;99.90
423;DHT22;198;48.752;9.180;2022-07-23T03:42:49;22.50;99.90
423;DHT22;198;48.752;9.180;2022-07-23T03:45:15;22.40;99.90
423;DHT22;198;48.752;9.180;2022-07-23T03:47:41;22.40;99.90
423;DHT22;198;48.752;9.180;2022-07-23T03:50:07;22.40;99.90
423;DHT22;198;48.752;9.180;2022-07-23T03:52:32;22.40;99.80
423;DHT22;198;48.752;9.180;2022-07-23T03:54:58;22.40;99.90
423;DHT22;198;48.752;9.180;2022-07-23T03:57:24;22.40;99.90
423;DHT22;198;48.752;9.180;2022-07-23T03:59:49;22.30;99.90
423;DHT22;198;48.752;9.180;2022-07-23T04:02:15;22.20;99.90
423;DHT22;198;48.752;9.180;2022-07-23T04:04:40;22.20;99.90
423;DHT22;198;48.752;9.180;2022-07-23T04:07:05;22.20;99.90
423;DHT22;198;48.752;9.180;2022-07-23T04:09:33;22.20;99.90
423;DHT22;198;48.752;9.180;2022-07-23T04:11:59;22.20;99.90
423;DHT22;198;48.752;9.180;2022-07-23T04:14:24;22.30;99.90
423;DHT22;198;48.752;9.180;2022-07-23T04:16:50;22.30;99.90
423;DHT22;198;48.752;9.180;2022-07-23T04:19:15;22.30;99.90
423;DHT22;198;48.752;9.180;2022-07-23T04:21:41;22.30;99.90
423;DHT22;198;48.752;9.180;2022-07-23T04:24:06;22.20;99.90
423;DHT22;198;48.752;9.180;2022-07-23T04:26:32;22.20;99.90
423;DHT22;198;48.752;9.180;2022-07-23T04:28:58;22.20;99.90
423;DHT22;198;48.752;9.180;2022-07-23T04:31:23;22.30;99.90
423;DHT22;198;48.752;9.180;2022-07-23T04:33:49;22.30;99.90
423;DHT22;198;48.752;9.180;2022-07-23T04:36:14;22.40;99.90
423;DHT22;198;48.752;9.180;2022-07-23T04:38:40;22.40;99.80
423;DHT22;198;48.752;9.180;2022-07-23T04:41:06;22.40;99.20
423;DHT22;198;48.752;9.180;2022-07-23T04:43:32;22.40;98.70
423;DHT22;198;48.752;9.180;2022-07-23T04:45:57;22.50;98.90
423;DHT22;198;48.752;9.180;2022-07-23T04:48:23;22.40;98.80
423;DHT22;198;48.752;9.180;2022-07-23T04:50:49;22.40;99.10
423;DHT22;198;48.752;9.180;2022-07-23T04:53:14;22.40;99.30
423;DHT22;198;48.752;9.180;2022-07-23T04:55:40;22.40;99.80
423;DHT22;198;48.752;9.180;2022-07-23T04:58:05;22.50;99.30
423;DHT22;198;48.752;9.180;2022-07-23T05:00:31;22.50;99.10
423;DHT22;198;48.752;9.180;2022-07-23T05:02:56;22.60;98.70
423;DHT22;198;48.752;9.180;2022-07-23T05:05:22;22.70;98.80
423;DHT22;198;48.752;9.180;2022-07-23T05:07:47;22.80;98.40
423;DHT22;198;48.752;9.180;2022-07-23T05:10:13;22.80;98.10
423;DHT22;198;48.752;9.180;2022-07-23T05:12:38;22.80;97.80
423;DHT22;198;48.752;9.180;2022-07-23T05:15:04;22.90;98.00
423;DHT22;198;48.752;9.180;2022-07-23T05:17:30;22.90;97.70
423;DHT22;198;48.752;9.180;2022-07-23T05:19:55;22.90;98.00
423;DHT22;198;48.752;9.180;2022-07-23T05:22:21;23.00;97.90
423;DHT22;198;48.752;9.180;2022-07-23T05:24:46;23.10;97.70
423;DHT22;198;48.752;9.180;2022-07-23T05:27:11;23.10;97.40
423;DHT22;198;48.752;9.180;2022-07-23T05:29:37;23.10;97.30
423;DHT22;198;48.752;9.180;2022-07-23T05:32:03;23.10;97.00
423;DHT22;198;48.752;9.180;2022-07-23T05:34:28;23.10;97.10
423;DHT22;198;48.752;9.180;2022-07-23T05:36:54;23.10;97.00
423;DHT22;198;48.752;9.180;2022-07-23T05:39:19;23.20;97.00
423;DHT22;198;48.752;9.180;2022-07-23T05:41:45;23.40;97.10
423;DHT22;198;48.752;9.180;2022-07-23T05:44:10;23.40;96.90
423;DHT22;198;48.752;9.180;2022-07-23T05:46:36;23.50;96.60
423;DHT22;198;48.752;9.180;2022-07-23T05:49:01;23.50;96.50
423;DHT22;198;48.752;9.180;2022-07-23T05:51:27;23.50;96.80
423;DHT22;198;48.752;9.180;2022-07-23T05:53:53;23.60;96.30
423;DHT22;198;48.752;9.180;2022-07-23T05:56:19;23.60;96.40
423;DHT22;198;48.752;9.180;2022-07-23T05:58:44;23.70;96.60
423;DHT22;198;48.752;9.180;2022-07-23T06:01:10;23.70;96.00
423;DHT22;198;48.752;9.180;2022-07-23T06:03:37;23.80;95.00
423;DHT22;198;48.752;9.180;2022-07-23T06:06:03;23.90;94.20
423;DHT22;198;48.752;9.180;2022-07-23T06:08:29;23.80;93.90
423;DHT22;198;48.752;9.180;2022-07-23T06:10:54;23.80;95.00
423;DHT22;198;48.752;9.180;2022-07-23T06:13:20;23.80;94.90
423;DHT22;198;48.752;9.180;2022-07-23T06:15:45;23.90;96.20
423;DHT22;198;48.752;9.180;2022-07-23T06:18:11;24.00;98.00
423;DHT22;198;48.752;9.180;2022-07-23T06:20:37;24.20;97.70
423;DHT22;198;48.752;9.180;2022-07-23T06:23:03;24.30;96.40
423;DHT22;198;48.752;9.180;2022-07-23T06:25:29;24.50;96.20
423;DHT22;198;48.752;9.180;2022-07-23T06:27:54;24.60;95.60
423;DHT22;198;48.752;9.180;2022-07-23T06:30:20;24.70;96.10
423;DHT22;198;48.752;9.180;2022-07-23T06:32:46;24.80;95.70
423;DHT22;198;48.752;9.180;2022-07-23T06:35:12;24.80;94.40
423;DHT22;198;48.752;9.180;2022-07-23T06:37:37;24.90;93.70
423;DHT22;198;48.752;9.180;2022-07-23T06:40:03;24.90;93.50
423;DHT22;198;48.752;9.180;2022-07-23T06:42:29;25.00;93.50
423;DHT22;198;48.752;9.180;2022-07-23T06:44:54;25.00;91.90
423;DHT22;198;48.752;9.180;2022-07-23T06:47:20;25.00;91.60
423;DHT22;198;48.752;9.180;2022-07-23T06:49:45;25.10;91.90
423;DHT22;198;48.752;9.180;2022-07-23T06:52:11;25.30;90.90
423;DHT22;198;48.752;9.180;2022-07-23T06:54:36;25.40;91.80
423;DHT22;198;48.752;9.180;2022-07-23T06:57:02;25.50;90.30
423;DHT22;198;48.752;9.180;2022-07-23T06:59:28;25.50;88.80
423;DHT22;198;48.752;9.180;2022-07-23T07:01:53;25.30;87.70
423;DHT22;198;48.752;9.180;2022-07-23T07:04:19;25.20;88.50
423;DHT22;198;48.752;9.180;2022-07-23T07:06:44;25.20;90.10
423;DHT22;198;48.752;9.180;2022-07-23T07:09:10;25.30;89.20
423;DHT22;198;48.752;9.180;2022-07-23T07:11:36;25.30;88.10
423;DHT22;198;48.752;9.180;2022-07-23T07:14:01;25.30;86.30
423;DHT22;198;48.752;9.180;2022-07-23T07:16:27;25.40;84.70
423;DHT22;198;48.752;9.180;2022-07-23T07:18:52;25.30;84.90
423;DHT22;198;48.752;9.180;2022-07-23T07:21:17;25.30;85.10
423;DHT22;198;48.752;9.180;2022-07-23T07:23:43;25.30;84.80
423;DHT22;198;48.752;9.180;2022-07-23T07:26:08;25.10;83.10
423;DHT22;198;48.752;9.180;2022-07-23T07:28:34;24.90;83.00
423;DHT22;198;48.752;9.180;2022-07-23T07:31:00;24.80;83.20
423;DHT22;198;48.752;9.180;2022-07-23T07:33:25;24.70;85.10
423;DHT22;198;48.752;9.180;2022-07-23T07:35:51;24.70;85.80
423;DHT22;198;48.752;9.180;2022-07-23T07:38:16;24.70;87.60
423;DHT22;198;48.752;9.180;2022-07-23T07:40:42;24.80;89.40
423;DHT22;198;48.752;9.180;2022-07-23T07:43:07;24.90;90.30
423;DHT22;198;48.752;9.180;2022-07-23T07:45:33;24.90;90.40
423;DHT22;198;48.752;9.180;2022-07-23T07:47:58;25.10;90.30
423;DHT22;198;48.752;9.180;2022-07-23T07:50:24;25.30;90.50
423;DHT22;198;48.752;9.180;2022-07-23T07:52:50;25.30;88.90
423;DHT22;198;48.752;9.180;2022-07-23T07:55:15;25.30;90.10
423;DHT22;198;48.752;9.180;2022-07-23T07:57:41;25.20;90.70
423;DHT22;198;48.752;9.180;2022-07-23T08:00:08;25.20;91.40
423;DHT22;198;48.752;9.180;2022-07-23T08:02:41;25.30;91.20
423;DHT22;198;48.752;9.180;2022-07-23T08:05:07;25.40;90.10
423;DHT22;198;48.752;9.180;2022-07-23T08:07:33;25.60;88.40
423;DHT22;198;48.752;9.180;2022-07-23T08:09:58;25.80;84.70
423;DHT22;198;48.752;9.180;2022-07-23T08:12:24;25.80;85.70
423;DHT22;198;48.752;9.180;2022-07-23T08:14:49;25.90;84.40
423;DHT22;198;48.752;9.180;2022-07-23T08:17:15;26.10;83.90
423;DHT22;198;48.752;9.180;2022-07-23T08:19:40;26.20;83.30
423;DHT22;198;48.752;9.180;2022-07-23T08:22:06;26.30;83.80
423;DHT22;198;48.752;9.180;2022-07-23T08:24:31;26.30;80.30
423;DHT22;198;48.752;9.180;2022-07-23T08:26:57;26.10;81.20
423;DHT22;198;48.752;9.180;2022-07-23T08:29:22;26.00;82.30
423;DHT22;198;48.752;9.180;2022-07-23T08:31:48;25.90;83.30
423;DHT22;198;48.752;9.180;2022-07-23T08:34:13;25.80;82.90
423;DHT22;198;48.752;9.180;2022-07-23T08:36:39;25.60;83.10
423;DHT22;198;48.752;9.180;2022-07-23T08:39:04;25.60;85.50
423;DHT22;198;48.752;9.180;2022-07-23T08:41:30;25.70;85.40
423;DHT22;198;48.752;9.180;2022-07-23T08:43:55;25.80;86.40
423;DHT22;198;48.752;9.180;2022-07-23T08:46:22;26.10;84.60
423;DHT22;198;48.752;9.180;2022-07-23T08:48:49;26.60;81.50
423;DHT22;198;48.752;9.180;2022-07-23T08:51:15;27.10;79.00
423;DHT22;198;48.752;9.180;2022-07-23T08:53:41;27.30;74.10
423;DHT22;198;48.752;9.180;2022-07-23T08:56:07;27.40;74.50
423;DHT22;198;48.752;9.180;2022-07-23T08:58:33;27.50;73.10
423;DHT22;198;48.752;9.180;2022-07-23T09:00:59;27.40;72.80
423;DHT22;198;48.752;9.180;2022-07-23T09:03:30;27.30;71.70
423;DHT22;198;48.752;9.180;2022-07-23T09:05:57;27.70;69.40
423;DHT22;198;48.752;9.180;2022-07-23T09:08:27;27.80;66.20
423;DHT22;198;48.752;9.180;2022-07-23T09:11:00;28.10;65.70
423;DHT22;198;48.752;9.180;2022-07-23T09:13:32;28.30;63.80
423;DHT22;198;48.752;9.180;2022-07-23T09:16:01;28.50;61.50
423;DHT22;198;48.752;9.180;2022-07-23T09:18:54;28.80;57.40
423;DHT22;198;48.752;9.180;2022-07-23T09:21:23;29.00;56.40
423;DHT22;198;48.752;9.180;2022-07-23T09:24:00;29.10;59.00
423;DHT22;198;48.752;9.180;2022-07-23T09:29:13;29.40;59.00
423;DHT22;198;48.752;9.180;2022-07-23T09:31:57;29.60;59.40
423;DHT22;198;48.752;9.180;2022-07-23T09:34:43;29.60;57.20
423;DHT22;198;48.752;9.180;2022-07-23T09:37:19;29.90;56.30
423;DHT22;198;48.752;9.180;2022-07-23T09:39:46;29.70;53.30
423;DHT22;198;48.752;9.180;2022-07-23T09:42:16;30.00;54.20
423;DHT22;198;48.752;9.180;2022-07-23T09:44:47;29.90;54.20
423;DHT22;198;48.752;9.180;2022-07-23T09:47:13;29.80;52.80
423;DHT22;198;48.752;9.180;2022-07-23T09:49:39;30.10;53.60
423;DHT22;198;48.752;9.180;2022-07-23T09:52:05;30.60;52.90
423;DHT22;198;48.752;9.180;2022-07-23T09:54:36;30.80;49.80
423;DHT22;198;48.752;9.180;2022-07-23T09:57:10;30.80;50.20
423;DHT22;198;48.752;9.180;2022-07-23T09:59:40;31.30;48.80
423;DHT22;198;48.752;9.180;2022-07-23T10:02:07;31.80;47.80
423;DHT22;198;48.752;9.180;2022-07-23T10:04:33;32.50;46.80
423;DHT22;198;48.752;9.180;2022-07-23T10:07:02;34.10;46.80
423;DHT22;198;48.752;9.180;2022-07-23T10:09:33;35.70;44.80
423;DHT22;198;48.752;9.180;2022-07-23T10:12:04;37.40;41.00
423;DHT22;198;48.752;9.180;2022-07-23T10:14:38;38.30;39.80
423;DHT22;198;48.752;9.180;2022-07-23T10:17:05;39.70;36.70
423;DHT22;198;48.752;9.180;2022-07-23T10:19:31;40.50;35.40
423;DHT22;198;48.752;9.180;2022-07-23T10:22:00;41.20;32.90
423;DHT22;198;48.752;9.180;2022-07-23T10:24:53;40.90;32.30
423;DHT22;198;48.752;9.180;2022-07-23T10:36:42;42.40;31.60
423;DHT22;198;48.752;9.180;2022-07-23T10:39:28;43.10;31.00
423;DHT22;198;48.752;9.180;2022-07-23T10:42:16;44.60;29.20
423;DHT22;198;48.752;9.180;2022-07-23T10:44:48;46.60;27.40
423;DHT22;198;48.752;9.180;2022-07-23T10:47:30;47.80;26.40
423;DHT22;198;48.752;9.180;2022-07-23T10:50:21;49.00;25.80
423;DHT22;198;48.752;9.180;2022-07-23T10:57:57;50.00;24.10
423;DHT22;198;48.752;9.180;2022-07-23T11:00:25;50.30;23.50
423;DHT22;198;48.752;9.180;2022-07-23T11:02:56;51.60;23.60
423;DHT22;198;48.752;9.180;2022-07-23T11:05:39;52.30;23.00
423;DHT22;198;48.752;9.180;2022-07-23T11:34:50;47.80;23.70
423;DHT22;198;48.752;9.180;2022-07-23T11:37:29;46.20;24.50
423;DHT22;198;48.752;9.180;2022-07-23T11:39:57;43.90;25.40
423;DHT22;198;48.752;9.180;2022-07-23T11:42:24;42.00;27.50
423;DHT22;198;48.752;9.180;2022-07-23T11:44:50;41.10;28.10
423;DHT22;198;48.752;9.180;2022-07-23T11:47:25;39.90;30.00
423;DHT22;198;48.752;9.180;2022-07-23T11:49:59;40.80;29.90
423;DHT22;198;48.752;9.180;2022-07-23T11:52:26;43.90;28.80
423;DHT22;198;48.752;9.180;2022-07-23T11:55:03;46.30;26.50
423;DHT22;198;48.752;9.180;2022-07-23T11:57:31;46.70;25.70
423;DHT22;198;48.752;9.180;2022-07-23T12:00:07;45.30;26.40
423;DHT22;198;48.752;9.180;2022-07-23T12:02:35;45.90;26.80
423;DHT22;198;48.752;9.180;2022-07-23T12:05:00;47.80;25.50
423;DHT22;198;48.752;9.180;2022-07-23T12:07:34;49.10;24.40
423;DHT22;198;48.752;9.180;2022-07-23T12:10:15;49.70;23.70
423;DHT22;198;48.752;9.180;2022-07-23T12:12:51;50.60;23.70
423;DHT22;198;48.752;9.180;2022-07-23T12:15:20;51.30;23.50
423;DHT22;198;48.752;9.180;2022-07-23T12:17:48;51.80;23.30
423;DHT22;198;48.752;9.180;2022-07-23T12:20:16;52.30;23.10
423;DHT22;198;48.752;9.180;2022-07-23T12:22:46;52.50;22.50
423;DHT22;198;48.752;9.180;2022-07-23T12:25:15;52.50;21.80
423;DHT22;198;48.752;9.180;2022-07-23T12:27:42;52.20;22.10
423;DHT22;198;48.752;9.180;2022-07-23T12:30:17;52.40;22.00
423;DHT22;198;48.752;9.180;2022-07-23T12:32:45;51.30;22.50
423;DHT22;198;48.752;9.180;2022-07-23T12:35:10;49.20;22.70
423;DHT22;198;48.752;9.180;2022-07-23T12:37:38;46.30;24.30
423;DHT22;198;48.752;9.180;2022-07-23T12:40:30;43.40;25.80
423;DHT22;198;48.752;9.180;2022-07-23T12:43:08;41.50;27.60
423;DHT22;198;48.752;9.180;2022-07-23T12:45:46;41.50;29.00
423;DHT22;198;48.752;9.180;2022-07-23T12:51:07;44.70;27.30
423;DHT22;198;48.752;9.180;2022-07-23T12:53:38;46.80;26.30
423;DHT22;198;48.752;9.180;2022-07-23T12:56:10;47.90;25.40
423;DHT22;198;48.752;9.180;2022-07-23T12:58:45;48.60;24.20
423;DHT22;198;48.752;9.180;2022-07-23T13:04:08;47.90;24.90
423;DHT22;198;48.752;9.180;2022-07-23T13:06:37;47.40;24.30
423;DHT22;198;48.752;9.180;2022-07-23T13:09:05;47.50;24.60
423;DHT22;198;48.752;9.180;2022-07-23T13:11:31;48.00;25.00
423;DHT22;198;48.752;9.180;2022-07-23T13:13:57;48.60;24.10
423;DHT22;198;48.752;9.180;2022-07-23T13:16:23;48.20;24.20
423;DHT22;198;48.752;9.180;2022-07-23T13:18:48;48.30;24.20
423;DHT22;198;48.752;9.180;2022-07-23T13:21:14;48.80;24.40
423;DHT22;198;48.752;9.180;2022-07-23T13:23:39;49.60;23.70
423;DHT22;198;48.752;9.180;2022-07-23T13:26:05;50.10;23.30
423;DHT22;198;48.752;9.180;2022-07-23T13:28:30;50.90;22.90
423;DHT22;198;48.752;9.180;2022-07-23T13:30:56;51.70;22.30
423;DHT22;198;48.752;9.180;2022-07-23T13:33:23;51.60;22.20
423;DHT22;198;48.752;9.180;2022-07-23T13:35:50;51.20;21.90
423;DHT22;198;48.752;9.180;2022-07-23T13:38:17;50.90;22.30
423;DHT22;198;48.752;9.180;2022-07-23T13:40:45;50.30;22.70
423;DHT22;198;48.752;9.180;2022-07-23T13:43:12;49.30;22.00
423;DHT22;198;48.752;9.180;2022-07-23T13:45:39;47.50;22.90
423;DHT22;198;48.752;9.180;2022-07-23T13:48:06;45.50;24.10
423;DHT22;198;48.752;9.180;2022-07-23T13:50:33;44.90;25.20
423;DHT22;198;48.752;9.180;2022-07-23T13:53:04;44.10;24.80
423;DHT22;198;48.752;9.180;2022-07-23T13:55:31;42.50;26.10
423;DHT22;198;48.752;9.180;2022-07-23T13:57:57;42.00;27.20
423;DHT22;198;48.752;9.180;2022-07-23T14:00:23;43.00;27.20
423;DHT22;198;48.752;9.180;2022-07-23T14:02:48;43.90;25.90
423;DHT22;198;48.752;9.180;2022-07-23T14:05:14;45.40;26.00
423;DHT22;198;48.752;9.180;2022-07-23T14:07:40;45.70;24.80
423;DHT22;198;48.752;9.180;2022-07-23T14:10:07;45.90;24.40
423;DHT22;198;48.752;9.180;2022-07-23T14:12:33;44.90;24.60
423;DHT22;198;48.752;9.180;2022-07-23T14:14:58;43.50;25.40
423;DHT22;198;48.752;9.180;2022-07-23T14:17:24;42.80;26.40
423;DHT22;198;48.752;9.180;2022-07-23T14:19:50;43.00;26.90
423;DHT22;198;48.752;9.180;2022-07-23T14:22:16;42.80;26.30
423;DHT22;198;48.752;9.180;2022-07-23T14:24:42;42.00;26.40
423;DHT22;198;48.752;9.180;2022-07-23T14:27:08;41.70;27.50
423;DHT22;198;48.752;9.180;2022-07-23T14:29:34;42.50;27.10
423;DHT22;198;48.752;9.180;2022-07-23T14:32:00;42.10;27.20
423;DHT22;198;48.752;9.180;2022-07-23T14:34:26;42.10;27.30
423;DHT22;198;48.752;9.180;2022-07-23T14:36:52;40.90;27.10
423;DHT22;198;48.752;9.180;2022-07-23T14:39:18;39.80;28.10
423;DHT22;198;48.752;9.180;2022-07-23T14:41:44;40.40;28.10
423;DHT22;198;48.752;9.180;2022-07-23T14:44:10;40.40;27.80
423;DHT22;198;48.752;9.180;2022-07-23T14:46:36;39.70;28.70
423;DHT22;198;48.752;9.180;2022-07-23T14:49:02;39.50;29.60
423;DHT22;198;48.752;9.180;2022-07-23T14:51:27;40.20;28.40
423;DHT22;198;48.752;9.180;2022-07-23T14:53:53;41.80;27.50
423;DHT22;198;48.752;9.180;2022-07-23T14:56:18;42.80;26.60
423;DHT22;198;48.752;9.180;2022-07-23T14:58:44;43.40;26.40
423;DHT22;198;48.752;9.180;2022-07-23T15:01:09;43.90;26.10
423;DHT22;198;48.752;9.180;2022-07-23T15:03:35;43.50;25.80
423;DHT22;198;48.752;9.180;2022-07-23T15:06:01;42.40;26.40
423;DHT22;198;48.752;9.180;2022-07-23T15:08:26;41.30;26.40
423;DHT22;198;48.752;9.180;2022-07-23T15:10:52;41.60;27.70
423;DHT22;198;48.752;9.180;2022-07-23T15:13:17;42.40;26.00
423;DHT22;198;48.752;9.180;2022-07-23T15:15:43;42.70;26.00
423;DHT22;198;48.752;9.180;2022-07-23T15:18:10;41.70;26.80
423;DHT22;198;48.752;9.180;2022-07-23T15:20:35;40.50;27.30
423;DHT22;198;48.752;9.180;2022-07-23T15:23:03;40.50;27.80
423;DHT22;198;48.752;9.180;2022-07-23T15:25:29;41.50;27.50
423;DHT22;198;48.752;9.180;2022-07-23T15:27:54;42.30;27.10
423;DHT22;198;48.752;9.180;2022-07-23T15:30:24;43.40;26.70
423;DHT22;198;48.752;9.180;2022-07-23T15:32:50;43.00;26.00
423;DHT22;198;48.752;9.180;2022-07-23T15:35:15;43.10;26.40
423;DHT22;198;48.752;9.180;2022-07-23T15:37:41;43.10;26.20
423;DHT22;198;48.752;9.180;2022-07-23T15:40:08;43.20;26.50
423;DHT22;198;48.752;9.180;2022-07-23T15:42:33;42.60;26.80
423;DHT22;198;48.752;9.180;2022-07-23T15:44:59;42.80;27.10
423;DHT22;198;48.752;9.180;2022-07-23T15:47:24;42.80;26.80
423;DHT22;198;48.752;9.180;2022-07-23T15:49:50;41.70;27.20
423;DHT22;198;48.752;9.180;2022-07-23T15:52:15;41.00;28.20
423;DHT22;198;48.752;9.180;2022-07-23T15:54:41;40.80;28.20
423;DHT22;198;48.752;9.180;2022-07-23T15:57:08;40.30;28.40
423;DHT22;198;48.752;9.180;2022-07-23T15:59:35;40.00;28.10
423;DHT22;198;48.752;9.180;2022-07-23T16:02:01;39.90;28.30
423;DHT22;198;48.752;9.180;2022-07-23T16:04:27;40.10;28.20
423;DHT22;198;48.752;9.180;2022-07-23T16:06:52;40.40;28.60
423;DHT22;198;48.752;9.180;2022-07-23T16:09:18;40.90;27.70
423;DHT22;198;48.752;9.180;2022-07-23T16:11:43;41.10;28.20
423;DHT22;198;48.752;9.180;2022-07-23T16:14:09;40.80;28.40
423;DHT22;198;48.752;9.180;2022-07-23T16:16:35;41.10;28.10
423;DHT22;198;48.752;9.180;2022-07-23T16:19:00;40.90;27.90
423;DHT22;198;48.752;9.180;2022-07-23T16:21:26;40.40;28.10
423;DHT22;198;48.752;9.180;2022-07-23T16:23:52;40.30;28.50
423;DHT22;198;48.752;9.180;2022-07-23T16:26:18;39.70;28.50
423;DHT22;198;48.752;9.180;2022-07-23T16:28:45;40.10;28.90
423;DHT22;198;48.752;9.180;2022-07-23T16:31:11;40.40;28.10
423;DHT22;198;48.752;9.180;2022-07-23T16:33:37;39.90;28.00
423;DHT22;198;48.752;9.180;2022-07-23T16:36:03;39.00;28.70
423;DHT22;198;48.752;9.180;2022-07-23T16:38:29;38.40;29.50
423;DHT22;198;48.752;9.180;2022-07-23T16:40:55;37.70;30.00
423;DHT22;198;48.752;9.180;2022-07-23T16:43:21;36.70;30.80
423;DHT22;198;48.752;9.180;2022-07-23T16:45:47;35.90;32.40
423;DHT22;198;48.752;9.180;2022-07-23T16:48:13;35.70;33.10
423;DHT22;198;48.752;9.180;2022-07-23T16:50:38;35.80;33.70
423;DHT22;198;48.752;9.180;2022-07-23T16:53:04;35.70;33.50
423;DHT22;198;48.752;9.180;2022-07-23T16:55:29;35.30;34.20
423;DHT22;198;48.752;9.180;2022-07-23T16:57:55;34.80;35.20
423;DHT22;198;48.752;9.180;2022-07-23T17:00:21;34.60;35.70
423;DHT22;198;48.752;9.180;2022-07-23T17:02:46;34.50;36.20
423;DHT22;198;48.752;9.180;2022-07-23T17:05:12;34.10;36.20
423;DHT22;198;48.752;9.180;2022-07-23T17:07:38;33.50;36.90
423;DHT22;198;48.752;9.180;2022-07-23T17:10:05;33.00;37.70
423;DHT22;198;48.752;9.180;2022-07-23T17:12:31;32.60;38.60
423;DHT22;198;48.752;9.180;2022-07-23T17:14:57;32.40;39.20
423;DHT22;198;48.752;9.180;2022-07-23T17:17:23;32.20;40.00
423;DHT22;198;48.752;9.180;2022-07-23T17:19:48;31.90;40.50
423;DHT22;198;48.752;9.180;2022-07-23T17:22:14;31.60;40.90